Time;durP1;ratioP1;P1;durP2;ratioP2;P2;SDS_P1;SDS_P2;PMS_P1;PMS_P2;Temp;Humidity;BMP_temperature;BMP_pressure;BME280_temperature;BME280_humidity;BME280_pressure;Samples;Min_cycle;Max_cycle;Signal;HPM_P1;HPM_P2
2023/08/28 00:02:13;;;;;;;11.15;5.95;;;18.50;99.90;;;;;;6121568;23;20169;-89
2023/08/28 00:04:41;;;;;;;8.90;5.80;;;18.50;99.90;;;;;;6095479;23;20171;-87
2023/08/28 00:07:09;;;;;;;10.32;6.20;;;18.40;99.90;;;;;;6121890;23;20155;-89
2023/08/28 00:09:36;;;;;;;15.50;8.57;;;18.30;99.90;;;;;;6121865;23;20493;-89
2023/08/28 00:12:04;;;;;;;15.05;8.07;;;18.30;99.90;;;;;;6121720;23;20179;-89
2023/08/28 00:14:32;;;;;;;14.63;10.15;;;18.40;99.90;;;;;;6095922;23;20630;-88
2023/08/28 00:17:00;;;;;;;13.40;9.60;;;18.30;99.90;;;;;;6123303;23;20191;-88
2023/08/28 00:19:27;;;;;;;12.52;8.75;;;18.30;99.90;;;;;;6097178;23;20222;-89
2023/08/28 00:21:55;;;;;;;12.95;7.82;;;18.30;99.90;;;;;;6097300;23;20168;-89
2023/08/28 00:24:22;;;;;;;14.73;9.10;;;18.40;99.90;;;;;;6123298;23;20170;-87
2023/08/28 00:26:50;;;;;;;14.50;8.88;;;18.40;99.90;;;;;;6097295;23;20198;-87
2023/08/28 00:29:17;;;;;;;12.80;9.25;;;18.40;99.90;;;;;;6097667;23;20190;-89
2023/08/28 00:31:45;;;;;;;14.60;9.50;;;18.40;99.90;;;;;;6123696;23;20172;-88
2023/08/28 00:34:12;;;;;;;11.25;8.52;;;18.40;99.90;;;;;;6073635;23;20678;-88
2023/08/28 00:36:40;;;;;;;14.35;8.75;;;18.40;99.90;;;;;;6097005;23;20278;-90
2023/08/28 00:39:07;;;;;;;15.65;10.32;;;18.50;99.90;;;;;;6073492;23;20627;-88
2023/08/28 00:41:36;;;;;;;14.60;9.95;;;18.40;99.90;;;;;;6122957;23;20262;-88
2023/08/28 00:44:04;;;;;;;16.13;10.32;;;18.40;99.90;;;;;;6096933;23;20191;-87
2023/08/28 00:46:32;;;;;;;15.98;11.02;;;18.40;99.90;;;;;;6096436;23;20179;-88
2023/08/28 00:49:00;;;;;;;16.60;10.73;;;18.40;99.90;;;;;;6073078;23;20689;-88
2023/08/28 00:51:28;;;;;;;11.73;8.80;;;18.40;99.90;;;;;;6122820;23;20170;-87
2023/08/28 00:53:56;;;;;;;15.93;11.05;;;18.30;99.90;;;;;;6097280;23;20206;-87
2023/08/28 00:56:24;;;;;;;17.40;10.02;;;18.40;99.90;;;;;;6073034;23;20231;-87
2023/08/28 00:58:52;;;;;;;16.38;11.10;;;18.30;99.90;;;;;;6096872;23;20195;-88
2023/08/28 01:01:19;;;;;;;13.70;10.93;;;18.30;99.90;;;;;;6073279;23;20194;-88
2023/08/28 01:03:47;;;;;;;17.80;11.10;;;18.30;99.90;;;;;;6096688;23;20198;-88
2023/08/28 01:06:18;;;;;;;17.50;11.50;;;18.20;99.90;;;;;;6122935;23;20170;-89
2023/08/28 01:09:23;;;;;;;17.38;11.63;;;18.20;99.90;;;;;;6123045;23;20166;-88
2023/08/28 01:12:12;;;;;;;17.80;10.90;;;18.30;99.90;;;;;;6053848;23;20606;-87
2023/08/28 01:15:06;;;;;;;17.38;12.20;;;18.30;99.90;;;;;;6096677;23;20167;-88
2023/08/28 01:17:36;;;;;;;17.08;12.07;;;18.20;99.90;;;;;;6096972;23;20178;-89
2023/08/28 01:20:04;;;;;;;14.40;11.90;;;18.20;99.90;;;;;;6096708;23;20253;-88
2023/08/28 01:22:42;;;;;;;19.52;12.20;;;18.20;99.90;;;;;;6097287;23;20214;-89
2023/08/28 01:25:10;;;;;;;17.10;11.43;;;18.20;99.90;;;;;;6073258;23;20255;-88
2023/08/28 01:27:39;;;;;;;17.40;12.05;;;18.20;99.90;;;;;;6096976;23;20178;-87
2023/08/28 01:30:16;;;;;;;17.42;12.02;;;18.20;99.90;;;;;;6073026;23;20195;-86
2023/08/28 01:32:45;;;;;;;17.20;12.18;;;18.20;99.90;;;;;;6097083;23;20177;-88
2023/08/28 01:35:25;;;;;;;18.65;11.95;;;18.20;99.90;;;;;;6073347;23;20172;-88
2023/08/28 01:37:55;;;;;;;18.92;12.55;;;18.30;99.90;;;;;;6098160;23;20238;-88
2023/08/28 01:40:29;;;;;;;19.25;12.35;;;18.20;99.90;;;;;;6097041;23;20158;-88
2023/08/28 01:42:58;;;;;;;18.00;12.48;;;18.20;99.90;;;;;;6072941;23;20242;-89
2023/08/28 01:45:26;;;;;;;17.70;12.43;;;18.30;99.90;;;;;;6095750;23;20920;-85
2023/08/28 01:47:55;;;;;;;17.75;12.63;;;18.20;99.90;;;;;;6121910;23;20270;-89
2023/08/28 01:50:22;;;;;;;17.17;12.75;;;18.30;99.90;;;;;;6096324;23;20510;-89
2023/08/28 01:52:50;;;;;;;16.27;12.63;;;18.20;99.90;;;;;;6096519;23;20171;-88
2023/08/28 01:55:53;;;;;;;19.88;13.32;;;18.20;99.90;;;;;;6072965;23;20172;-88
2023/08/28 01:58:21;;;;;;;17.17;12.70;;;18.20;99.90;;;;;;6072396;23;20203;-87
2023/08/28 02:00:50;;;;;;;19.25;14.02;;;18.10;99.90;;;;;;6073085;23;20171;-88
2023/08/28 02:03:17;;;;;;;18.55;12.88;;;18.10;99.90;;;;;;6096483;23;20195;-88
2023/08/28 02:05:45;;;;;;;22.02;13.70;;;18.00;99.90;;;;;;6072735;23;20171;-89
2023/08/28 02:08:12;;;;;;;21.75;14.77;;;18.00;99.90;;;;;;6072575;23;20201;-89
2023/08/28 02:10:40;;;;;;;21.20;14.48;;;18.00;99.90;;;;;;6072489;23;20267;-88
2023/08/28 02:13:08;;;;;;;18.98;13.43;;;18.00;99.90;;;;;;6072415;23;20171;-88
2023/08/28 02:15:35;;;;;;;18.40;14.90;;;18.00;99.90;;;;;;6096700;23;20193;-88
2023/08/28 02:18:04;;;;;;;22.42;15.10;;;18.00;99.90;;;;;;6096370;23;20172;-89
2023/08/28 02:20:32;;;;;;;17.77;14.75;;;18.00;99.90;;;;;;6096350;23;20194;-88
2023/08/28 02:23:00;;;;;;;23.30;14.85;;;18.00;99.90;;;;;;6122679;23;20163;-87
2023/08/28 02:25:28;;;;;;;22.60;15.68;;;18.00;99.90;;;;;;6072868;23;20167;-86
2023/08/28 02:27:56;;;;;;;20.77;14.07;;;17.90;99.90;;;;;;6095696;23;20239;-88
2023/08/28 02:30:23;;;;;;;19.95;14.55;;;18.00;99.90;;;;;;6096121;23;20177;-88
2023/08/28 02:32:52;;;;;;;18.42;14.57;;;17.90;99.90;;;;;;6095940;23;20178;-88
2023/08/28 02:35:21;;;;;;;20.00;15.05;;;17.90;99.90;;;;;;6096453;23;20180;-87
2023/08/28 02:37:49;;;;;;;20.38;14.30;;;17.90;99.90;;;;;;6096227;23;20171;-87
2023/08/28 02:40:17;;;;;;;20.60;14.65;;;18.00;99.90;;;;;;6071899;23;20636;-89
2023/08/28 02:42:44;;;;;;;22.17;13.68;;;18.00;99.90;;;;;;6122087;23;20619;-89
2023/08/28 02:45:12;;;;;;;21.80;15.32;;;18.00;99.90;;;;;;6122057;23;20165;-88
2023/08/28 02:47:39;;;;;;;21.55;14.98;;;17.90;99.90;;;;;;6095936;23;20175;-89
2023/08/28 02:50:07;;;;;;;20.20;15.57;;;18.00;99.90;;;;;;6095870;23;20242;-89
2023/08/28 02:52:35;;;;;;;23.13;14.57;;;18.00;99.90;;;;;;6072133;23;20178;-87
2023/08/28 02:55:02;;;;;;;20.30;14.30;;;17.90;99.90;;;;;;6096421;23;20199;-89
2023/08/28 02:57:30;;;;;;;22.15;15.80;;;18.00;99.90;;;;;;6072333;23;20646;-89
2023/08/28 02:59:57;;;;;;;21.02;15.57;;;17.90;99.90;;;;;;6096236;23;20211;-88
2023/08/28 03:02:25;;;;;;;21.15;16.13;;;17.90;99.90;;;;;;6072669;23;20615;-89
2023/08/28 03:04:52;;;;;;;20.77;14.57;;;17.90;99.90;;;;;;6071965;23;20577;-89
2023/08/28 03:07:20;;;;;;;22.13;16.05;;;18.00;99.90;;;;;;6095999;23;20560;-87
2023/08/28 03:09:48;;;;;;;18.65;14.10;;;17.90;99.90;;;;;;6095954;23;20179;-90
2023/08/28 03:12:16;;;;;;;18.50;14.95;;;17.90;99.90;;;;;;6096378;23;20163;-88
2023/08/28 03:14:43;;;;;;;23.52;14.23;;;17.90;99.90;;;;;;6096181;23;20175;-89
2023/08/28 03:17:11;;;;;;;17.33;12.60;;;17.90;99.90;;;;;;6121879;23;20191;-90
2023/08/28 03:19:41;;;;;;;19.85;16.13;;;17.90;99.90;;;;;;6122507;23;20164;-89
2023/08/28 03:22:08;;;;;;;20.70;14.75;;;18.00;99.90;;;;;;6095719;23;20178;-88
2023/08/28 03:24:36;;;;;;;20.48;14.38;;;17.80;99.90;;;;;;6071844;23;20171;-89
2023/08/28 03:27:04;;;;;;;21.55;15.05;;;17.90;99.90;;;;;;6096056;23;20175;-89
2023/08/28 03:29:31;;;;;;;19.77;14.10;;;17.90;99.90;;;;;;6095975;23;20179;-89
2023/08/28 03:31:59;;;;;;;22.63;14.45;;;18.00;99.90;;;;;;6121754;23;20166;-89
2023/08/28 03:34:26;;;;;;;17.30;14.32;;;18.00;99.90;;;;;;6096253;23;20250;-89
2023/08/28 03:36:54;;;;;;;21.73;14.05;;;18.00;99.90;;;;;;6095784;23;20206;-87
2023/08/28 03:39:21;;;;;;;15.63;12.48;;;17.90;99.90;;;;;;6121828;23;20431;-90
2023/08/28 03:41:49;;;;;;;22.02;14.30;;;17.90;99.90;;;;;;6121873;23;20678;-90
2023/08/28 03:44:16;;;;;;;22.95;16.77;;;17.90;99.90;;;;;;6095813;23;20187;-88
2023/08/28 03:46:44;;;;;;;18.98;13.13;;;18.00;99.90;;;;;;6095891;23;20207;-88
2023/08/28 03:49:11;;;;;;;22.05;15.63;;;17.90;99.90;;;;;;6072250;23;20171;-88
2023/08/28 03:51:39;;;;;;;22.40;14.43;;;17.90;99.90;;;;;;6097246;23;20230;-89
2023/08/28 03:54:13;;;;;;;22.15;15.77;;;17.90;99.90;;;;;;6123928;23;20238;-88
2023/08/28 03:56:41;;;;;;;20.60;14.57;;;17.90;99.90;;;;;;6074243;23;20182;-88
2023/08/28 03:59:09;;;;;;;23.35;14.95;;;18.00;99.90;;;;;;6097940;23;20567;-88
2023/08/28 04:01:38;;;;;;;21.13;15.35;;;17.90;99.90;;;;;;6097805;23;20171;-89
2023/08/28 04:04:06;;;;;;;21.27;15.25;;;17.90;99.90;;;;;;6074544;23;20171;-90
2023/08/28 04:06:34;;;;;;;21.48;15.50;;;17.90;99.90;;;;;;6098501;23;20191;-88
2023/08/28 04:09:02;;;;;;;19.08;14.65;;;17.90;99.90;;;;;;6098245;23;20638;-90
2023/08/28 04:11:30;;;;;;;17.23;13.68;;;17.90;99.90;;;;;;6097045;23;20218;-90
2023/08/28 04:13:58;;;;;;;26.80;16.88;;;17.90;99.90;;;;;;6097864;23;20187;-90
2023/08/28 04:16:25;;;;;;;21.42;14.88;;;17.90;99.90;;;;;;6098775;23;20246;-90
2023/08/28 04:18:53;;;;;;;21.67;15.02;;;17.90;99.90;;;;;;6074770;23;20184;-89
2023/08/28 04:21:21;;;;;;;21.38;15.32;;;17.90;99.90;;;;;;6098016;23;20480;-91
2023/08/28 04:23:48;;;;;;;22.25;15.30;;;17.90;99.90;;;;;;6097976;23;20171;-90
2023/08/28 04:26:16;;;;;;;19.83;14.90;;;17.90;99.90;;;;;;6098578;23;20558;-90
2023/08/28 04:28:44;;;;;;;22.27;16.10;;;17.90;99.90;;;;;;6073862;23;20614;-87
2023/08/28 04:31:13;;;;;;;21.80;14.68;;;17.90;99.90;;;;;;6074973;23;20194;-89
2023/08/28 04:33:41;;;;;;;20.98;15.38;;;17.90;99.90;;;;;;6074739;23;20175;-90
2023/08/28 04:36:08;;;;;;;22.42;15.85;;;17.80;99.90;;;;;;6074181;23;20226;-89
2023/08/28 04:38:36;;;;;;;22.33;15.65;;;17.80;99.90;;;;;;6074603;23;20174;-90
2023/08/28 04:41:03;;;;;;;20.33;14.98;;;17.90;99.90;;;;;;6098325;23;20175;-90
2023/08/28 04:43:33;;;;;;;21.98;15.80;;;17.80;99.90;;;;;;6097555;23;20174;-89
2023/08/28 04:46:00;;;;;;;22.90;16.45;;;17.80;99.90;;;;;;6098189;23;20215;-91
2023/08/28 04:48:31;;;;;;;22.05;14.95;;;17.90;99.90;;;;;;6097553;23;20159;-89
2023/08/28 04:50:58;;;;;;;19.70;14.13;;;17.90;99.90;;;;;;6098772;23;20222;-90
2023/08/28 04:53:26;;;;;;;20.30;15.50;;;18.00;99.90;;;;;;6074450;23;20163;-89
2023/08/28 04:55:55;;;;;;;22.80;15.70;;;17.90;99.90;;;;;;6098321;23;20175;-90
2023/08/28 04:58:23;;;;;;;21.08;15.23;;;17.80;99.90;;;;;;6074256;23;20203;-90
2023/08/28 05:00:54;;;;;;;19.73;14.73;;;17.80;99.90;;;;;;6075372;23;20189;-89
2023/08/28 05:03:22;;;;;;;22.95;15.70;;;17.70;99.90;;;;;;6097550;23;20224;-89
2023/08/28 05:05:52;;;;;;;22.63;15.63;;;17.70;99.90;;;;;;6098511;23;20183;-90
2023/08/28 05:08:19;;;;;;;21.83;14.50;;;17.70;99.90;;;;;;6074827;23;20175;-90
2023/08/28 05:10:47;;;;;;;19.33;14.30;;;17.80;99.90;;;;;;6125075;23;20171;-89
2023/08/28 05:13:15;;;;;;;18.98;13.48;;;17.80;99.90;;;;;;6098651;23;20233;-89
2023/08/28 05:15:42;;;;;;;25.10;15.50;;;17.70;99.90;;;;;;6075105;23;20175;-90
2023/08/28 05:18:11;;;;;;;28.60;17.63;;;17.70;99.90;;;;;;6074529;23;20191;-89
2023/08/28 05:20:41;;;;;;;20.33;13.73;;;17.70;99.90;;;;;;6074848;23;20167;-90
2023/08/28 05:23:09;;;;;;;18.77;13.90;;;17.70;99.90;;;;;;6075109;23;20176;-91
2023/08/28 05:25:37;;;;;;;23.00;15.77;;;17.70;99.90;;;;;;6098419;23;20246;-90
2023/08/28 05:28:05;;;;;;;21.23;15.13;;;17.70;99.90;;;;;;6096005;23;20198;-90
2023/08/28 05:30:32;;;;;;;22.40;16.20;;;17.70;99.90;;;;;;6074208;23;20242;-89
2023/08/28 05:33:00;;;;;;;21.80;13.82;;;17.60;99.90;;;;;;6097998;23;20193;-90
2023/08/28 05:35:28;;;;;;;20.95;15.10;;;17.70;99.90;;;;;;6074202;23;20175;-90
2023/08/28 05:37:56;;;;;;;20.17;13.50;;;17.70;99.90;;;;;;6097506;23;20274;-88
2023/08/28 05:40:23;;;;;;;22.13;16.17;;;17.80;99.90;;;;;;6097178;23;20176;-89
2023/08/28 05:42:51;;;;;;;23.67;17.02;;;17.80;99.90;;;;;;6097219;23;20171;-89
2023/08/28 05:45:19;;;;;;;18.92;14.68;;;17.70;99.90;;;;;;6097204;23;20198;-87
2023/08/28 05:47:47;;;;;;;22.33;16.40;;;17.80;99.90;;;;;;6097601;23;20167;-88
2023/08/28 05:50:17;;;;;;;21.25;14.82;;;17.80;99.90;;;;;;6096700;23;20198;-89
2023/08/28 05:52:45;;;;;;;21.10;15.48;;;17.80;99.90;;;;;;6073521;23;20194;-88
2023/08/28 05:55:13;;;;;;;20.05;14.88;;;17.70;99.90;;;;;;6073691;23;20175;-88
2023/08/28 05:57:41;;;;;;;21.13;15.15;;;17.80;99.90;;;;;;6123214;23;20230;-89
2023/08/28 06:00:09;;;;;;;19.80;15.25;;;17.80;99.90;;;;;;6097361;23;20290;-89
2023/08/28 06:02:41;;;;;;;25.15;17.08;;;17.80;99.90;;;;;;6074451;23;20238;-88
2023/08/28 06:05:09;;;;;;;22.58;15.50;;;17.80;99.90;;;;;;6097222;23;20610;-89
2023/08/28 06:07:37;;;;;;;23.10;16.58;;;17.80;99.90;;;;;;6096591;23;20194;-89
2023/08/28 06:10:05;;;;;;;23.02;16.23;;;17.80;99.90;;;;;;6073012;23;20195;-89
2023/08/28 06:12:34;;;;;;;19.42;14.27;;;17.70;99.90;;;;;;6073353;23;20175;-89
2023/08/28 06:15:02;;;;;;;21.95;15.93;;;17.70;99.90;;;;;;6097628;23;20179;-90
2023/08/28 06:17:30;;;;;;;21.90;15.93;;;17.80;99.90;;;;;;6096472;23;20191;-90
2023/08/28 06:19:58;;;;;;;25.35;17.02;;;17.80;99.90;;;;;;6073420;23;20758;-87
2023/08/28 06:22:27;;;;;;;23.20;16.65;;;17.80;99.90;;;;;;6096596;23;20194;-90
2023/08/28 06:24:55;;;;;;;22.70;17.02;;;17.80;99.90;;;;;;6097282;23;20234;-88
2023/08/28 06:27:22;;;;;;;24.67;18.05;;;17.80;99.90;;;;;;6096573;23;20234;-89
2023/08/28 06:29:50;;;;;;;24.33;18.38;;;17.80;99.90;;;;;;6096978;23;20190;-87
2023/08/28 06:32:17;;;;;;;22.15;16.20;;;17.80;99.90;;;;;;6097124;23;20262;-88
2023/08/28 06:34:45;;;;;;;23.00;16.80;;;17.80;99.90;;;;;;6072953;23;20194;-89
2023/08/28 06:37:13;;;;;;;22.63;16.45;;;17.80;99.90;;;;;;6097175;23;20179;-88
2023/08/28 06:39:40;;;;;;;22.77;16.75;;;17.80;99.90;;;;;;6096250;23;20178;-88
2023/08/28 06:42:08;;;;;;;23.45;16.48;;;17.90;99.90;;;;;;6097441;23;20159;-88
2023/08/28 06:44:35;;;;;;;20.90;15.85;;;18.00;99.90;;;;;;6072728;23;20175;-88
2023/08/28 06:47:03;;;;;;;22.55;16.70;;;18.00;99.90;;;;;;6096832;23;20168;-90
2023/08/28 06:49:31;;;;;;;21.65;15.75;;;18.10;99.90;;;;;;6122359;23;20668;-89
2023/08/28 06:51:58;;;;;;;22.77;16.58;;;18.10;99.90;;;;;;6096634;23;20199;-89
2023/08/28 06:54:27;;;;;;;22.63;15.88;;;18.10;99.90;;;;;;6096262;23;20551;-88
2023/08/28 06:57:14;;;;;;;23.00;15.82;;;18.20;99.90;;;;;;6076315;23;20184;-88
2023/08/28 06:59:42;;;;;;;24.27;18.33;;;18.20;99.90;;;;;;6096205;23;20585;-89
2023/08/28 07:02:10;;;;;;;22.50;16.08;;;18.20;99.90;;;;;;6097158;23;20167;-89
2023/08/28 07:04:37;;;;;;;22.30;17.42;;;18.30;99.90;;;;;;6098338;23;20250;-89
2023/08/28 07:07:05;;;;;;;24.15;18.65;;;18.30;99.90;;;;;;6095761;23;20223;-88
2023/08/28 07:09:33;;;;;;;21.67;15.50;;;18.40;99.90;;;;;;6122126;23;20629;-87
2023/08/28 07:12:02;;;;;;;20.98;15.63;;;18.40;99.90;;;;;;6096652;23;20713;-88
2023/08/28 07:14:30;;;;;;;24.73;17.70;;;18.40;99.90;;;;;;6096225;23;20190;-88
2023/08/28 07:16:57;;;;;;;20.85;15.82;;;18.40;99.90;;;;;;6122011;23;20179;-89
2023/08/28 07:19:25;;;;;;;20.15;16.00;;;18.40;99.90;;;;;;6072327;23;20214;-88
2023/08/28 07:21:54;;;;;;;20.88;16.33;;;18.50;99.90;;;;;;6122682;23;20669;-88
2023/08/28 07:24:22;;;;;;;21.02;16.85;;;18.50;99.90;;;;;;6121798;23;20160;-89
2023/08/28 07:26:49;;;;;;;20.38;15.43;;;18.60;99.90;;;;;;6098255;23;20192;-88
2023/08/28 07:29:17;;;;;;;24.08;17.27;;;18.50;99.90;;;;;;6123697;23;20170;-88
2023/08/28 07:31:45;;;;;;;23.00;16.17;;;18.60;99.90;;;;;;6097952;23;20175;-89
2023/08/28 07:34:12;;;;;;;21.85;16.23;;;18.60;99.90;;;;;;6123828;23;20159;-88
2023/08/28 07:36:40;;;;;;;21.15;16.00;;;18.60;99.90;;;;;;6123847;23;20238;-88
2023/08/28 07:39:07;;;;;;;20.70;15.00;;;18.60;99.90;;;;;;6123857;23;20211;-88
2023/08/28 07:41:35;;;;;;;20.85;16.38;;;18.60;99.90;;;;;;6123855;23;20186;-90
2023/08/28 07:44:03;;;;;;;21.75;16.63;;;18.60;99.90;;;;;;6097969;23;20168;-88
2023/08/28 07:46:31;;;;;;;22.85;17.25;;;18.60;99.90;;;;;;6098287;23;20233;-89
2023/08/28 07:48:59;;;;;;;25.92;18.40;;;18.60;99.90;;;;;;6123897;23;20190;-87
2023/08/28 07:51:26;;;;;;;24.67;16.83;;;18.60;99.90;;;;;;6097708;23;20178;-88
2023/08/28 07:53:56;;;;;;;19.10;14.63;;;18.60;99.90;;;;;;6123180;23;20170;-89
2023/08/28 07:56:23;;;;;;;18.75;15.18;;;18.60;99.90;;;;;;6097770;23;20179;-89
2023/08/28 07:58:51;;;;;;;23.05;18.25;;;18.70;99.90;;;;;;6122957;23;20223;-89
2023/08/28 08:01:19;;;;;;;21.20;16.02;;;18.70;99.90;;;;;;6097505;23;20876;-87
2023/08/28 08:03:46;;;;;;;22.42;17.50;;;18.70;99.90;;;;;;6123174;23;20215;-89
2023/08/28 08:06:14;;;;;;;23.88;18.35;;;18.70;99.90;;;;;;6123452;23;20690;-89
2023/08/28 08:08:45;;;;;;;21.35;17.52;;;18.70;99.90;;;;;;6123335;23;20163;-87
2023/08/28 08:11:13;;;;;;;24.73;18.60;;;18.70;99.90;;;;;;6097369;23;20167;-88
2023/08/28 08:13:40;;;;;;;21.60;16.65;;;18.70;99.90;;;;;;6097284;23;20170;-89
2023/08/28 08:16:08;;;;;;;22.13;17.33;;;18.80;99.90;;;;;;6073374;23;20195;-89
2023/08/28 08:18:36;;;;;;;22.55;17.00;;;18.70;99.90;;;;;;6123370;23;20183;-89
2023/08/28 08:21:04;;;;;;;23.35;17.55;;;18.70;99.90;;;;;;6098037;23;20164;-88
2023/08/28 08:23:31;;;;;;;27.08;18.35;;;18.70;99.90;;;;;;6097632;23;20167;-88
2023/08/28 08:25:59;;;;;;;21.73;16.13;;;18.80;99.90;;;;;;6073980;23;20182;-88
2023/08/28 08:28:29;;;;;;;21.27;16.98;;;18.80;99.90;;;;;;6097591;23;20191;-89
2023/08/28 08:30:57;;;;;;;21.23;15.25;;;18.90;99.90;;;;;;6098121;23;20160;-89
2023/08/28 08:33:24;;;;;;;22.35;16.20;;;18.90;99.90;;;;;;6073655;23;20171;-88
2023/08/28 08:35:52;;;;;;;22.55;17.48;;;18.90;99.90;;;;;;6123332;23;20168;-88
2023/08/28 08:38:20;;;;;;;25.30;17.30;;;19.00;99.90;;;;;;6123422;23;20183;-89
2023/08/28 08:40:52;;;;;;;20.98;15.82;;;19.00;99.90;;;;;;6073692;23;20653;-88
2023/08/28 08:43:20;;;;;;;22.83;17.00;;;19.10;99.90;;;;;;6098056;23;20210;-88
2023/08/28 08:45:49;;;;;;;24.42;19.05;;;19.10;99.90;;;;;;6097158;23;20167;-89
2023/08/28 08:48:24;;;;;;;22.00;17.85;;;19.20;99.90;;;;;;6123402;23;20187;-88
2023/08/28 08:50:55;;;;;;;22.42;16.40;;;19.20;99.90;;;;;;6073457;23;20163;-88
2023/08/28 08:53:31;;;;;;;24.00;18.23;;;19.20;99.90;;;;;;6097039;23;20238;-89
2023/08/28 08:56:03;;;;;;;24.50;19.00;;;19.30;99.90;;;;;;6097591;23;20497;-88
2023/08/28 08:58:33;;;;;;;21.90;16.00;;;19.40;99.90;;;;;;6097601;23;20207;-89
2023/08/28 09:01:04;;;;;;;19.70;14.95;;;19.40;99.90;;;;;;6123186;23;20147;-88
2023/08/28 09:03:32;;;;;;;24.95;18.35;;;19.40;99.90;;;;;;6123189;23;20170;-87
2023/08/28 09:06:01;;;;;;;23.88;19.13;;;19.40;99.90;;;;;;6122752;23;20681;-89
2023/08/28 09:08:31;;;;;;;27.52;18.20;;;19.50;99.90;;;;;;6073355;23;20215;-89
2023/08/28 09:11:00;;;;;;;25.10;20.02;;;19.50;99.90;;;;;;6073028;23;20645;-90
2023/08/28 09:13:27;;;;;;;22.50;18.15;;;19.60;99.90;;;;;;6072843;23;20175;-88
2023/08/28 09:15:55;;;;;;;24.20;18.27;;;19.60;99.90;;;;;;6073010;23;20175;-88
2023/08/28 09:18:25;;;;;;;23.92;18.13;;;19.60;99.90;;;;;;6097109;23;20191;-89
2023/08/28 09:21:08;;;;;;;25.10;17.58;;;19.70;99.90;;;;;;6096955;23;20874;-89
2023/08/28 09:23:44;;;;;;;22.90;17.85;;;19.80;99.90;;;;;;6097345;23;20226;-86
2023/08/28 09:26:19;;;;;;;19.02;15.50;;;19.80;99.90;;;;;;6098417;23;20211;-88
2023/08/28 09:29:02;;;;;;;21.95;17.48;;;19.80;99.90;;;;;;6097089;23;20432;-87
2023/08/28 09:31:42;;;;;;;22.83;17.70;;;19.90;99.90;;;;;;6096289;23;20171;-88
2023/08/28 09:34:10;;;;;;;21.48;18.15;;;19.90;99.90;;;;;;6097182;23;20159;-88
2023/08/28 09:36:40;;;;;;;22.15;16.67;;;20.00;99.90;;;;;;6072969;23;20199;-88
2023/08/28 09:39:12;;;;;;;23.58;16.48;;;20.00;99.90;;;;;;6074096;23;20187;-90
2023/08/28 09:41:48;;;;;;;24.13;18.02;;;20.00;99.90;;;;;;6073602;23;20270;-88
2023/08/28 09:44:18;;;;;;;25.27;19.10;;;20.00;99.90;;;;;;6073766;23;20170;-90
2023/08/28 09:46:49;;;;;;;23.90;19.42;;;19.90;99.90;;;;;;6098745;23;20231;-90
2023/08/28 09:49:17;;;;;;;21.52;16.60;;;19.90;99.90;;;;;;6074389;23;20177;-89
2023/08/28 09:51:47;;;;;;;19.40;15.98;;;19.90;99.90;;;;;;6098168;23;20258;-90
2023/08/28 09:54:16;;;;;;;21.75;16.38;;;19.80;99.90;;;;;;6073613;23;20167;-89
2023/08/28 09:56:45;;;;;;;24.88;19.10;;;19.90;99.90;;;;;;6123638;23;20163;-89
2023/08/28 09:59:15;;;;;;;21.48;16.67;;;19.90;99.90;;;;;;6073967;23;20211;-90
2023/08/28 10:01:43;;;;;;;23.25;17.30;;;19.90;99.90;;;;;;6097309;23;20159;-89
2023/08/28 10:04:14;;;;;;;20.48;15.40;;;19.90;99.90;;;;;;6074102;23;20171;-90
2023/08/28 10:06:49;;;;;;;19.33;15.02;;;19.80;99.90;;;;;;6074375;23;20160;-89
2023/08/28 10:09:19;;;;;;;14.18;10.48;;;19.80;99.90;;;;;;6123854;23;20150;-90
2023/08/28 10:11:50;;;;;;;11.23;9.13;;;19.60;99.90;;;;;;6097944;23;20179;-89
2023/08/28 10:14:21;;;;;;;12.07;8.85;;;19.60;99.90;;;;;;6123288;23;20151;-88
2023/08/28 10:17:03;;;;;;;8.57;6.68;;;19.50;99.90;;;;;;6123275;23;20159;-89
2023/08/28 10:19:39;;;;;;;9.38;6.47;;;19.40;99.90;;;;;;6073407;23;20234;-89
2023/08/28 10:22:11;;;;;;;8.95;6.85;;;19.30;99.90;;;;;;6123361;23;20158;-89
2023/08/28 10:24:49;;;;;;;6.75;4.80;;;19.20;99.90;;;;;;6095021;23;20251;-86
2023/08/28 10:27:18;;;;;;;4.95;4.40;;;19.20;99.90;;;;;;6123049;23;20168;-89
2023/08/28 10:29:52;;;;;;;4.68;3.45;;;19.10;99.90;;;;;;6073533;23;20175;-87
2023/08/28 10:32:21;;;;;;;5.10;3.30;;;19.00;99.90;;;;;;6097551;23;20158;-89
2023/08/28 10:34:51;;;;;;;3.15;2.70;;;18.90;99.90;;;;;;6097490;23;20251;-87
2023/08/28 10:37:19;;;;;;;3.35;2.40;;;18.80;99.90;;;;;;6073129;23;20683;-88
2023/08/28 10:40:01;;;;;;;2.67;2.17;;;18.80;99.90;;;;;;6099083;23;20195;-88
2023/08/28 10:42:30;;;;;;;2.13;1.92;;;18.70;99.90;;;;;;6096880;23;20163;-88
2023/08/28 10:44:58;;;;;;;5.10;1.83;;;18.60;99.90;;;;;;6073038;23;20171;-89
2023/08/28 10:47:28;;;;;;;2.05;1.60;;;18.70;99.90;;;;;;6122797;23;20151;-89
2023/08/28 10:49:56;;;;;;;1.70;1.45;;;18.70;99.90;;;;;;6073009;23;20182;-89
2023/08/28 10:52:24;;;;;;;3.03;1.35;;;18.60;99.90;;;;;;6072881;23;20176;-89
2023/08/28 10:54:56;;;;;;;1.92;1.10;;;18.60;99.90;;;;;;6096847;23;20726;-89
2023/08/28 10:57:28;;;;;;;1.60;1.23;;;18.60;99.90;;;;;;6072666;23;20167;-89
2023/08/28 11:00:02;;;;;;;1.98;1.15;;;18.60;99.90;;;;;;6122340;23;20295;-88
2023/08/28 11:03:02;;;;;;;2.53;1.10;;;18.50;99.90;;;;;;6072744;23;20175;-87
2023/08/28 11:05:30;;;;;;;1.80;1.00;;;18.50;99.90;;;;;;6096711;23;20160;-89
2023/08/28 11:08:03;;;;;;;1.98;0.98;;;18.50;99.90;;;;;;6072361;23;20202;-88
2023/08/28 11:10:32;;;;;;;1.75;0.70;;;18.50;99.90;;;;;;6095690;23;20160;-89
2023/08/28 11:13:05;;;;;;;1.23;0.80;;;18.40;99.90;;;;;;6096537;23;20219;-88
2023/08/28 11:15:38;;;;;;;0.70;0.70;;;18.30;99.90;;;;;;6122186;23;20749;-89
2023/08/28 11:18:31;;;;;;;0.90;0.60;;;18.30;99.90;;;;;;6096753;23;20234;-89
2023/08/28 11:21:01;;;;;;;0.73;0.60;;;18.20;99.90;;;;;;6091345;23;20548;-87
2023/08/28 11:23:36;;;;;;;2.25;0.50;;;18.10;99.90;;;;;;6096131;23;20484;-88
2023/08/28 11:26:07;;;;;;;1.13;0.50;;;18.10;99.90;;;;;;6072544;23;20613;-87
2023/08/28 11:28:53;;;;;;;1.67;0.60;;;18.10;99.90;;;;;;6121994;23;20633;-88
2023/08/28 11:31:28;;;;;;;0.40;0.40;;;18.10;99.90;;;;;;6121991;23;20159;-88
2023/08/28 11:33:55;;;;;;;2.55;0.60;;;18.10;99.90;;;;;;6122095;23;20162;-88
2023/08/28 11:36:23;;;;;;;1.23;0.50;;;18.20;99.90;;;;;;6072436;23;20206;-89
2023/08/28 11:38:54;;;;;;;0.45;0.35;;;18.30;99.90;;;;;;6096091;23;20206;-91
2023/08/28 11:41:23;;;;;;;0.98;0.55;;;18.40;99.90;;;;;;6072343;23;20218;-89
2023/08/28 11:43:50;;;;;;;0.77;0.50;;;18.40;99.90;;;;;;6096420;23;20166;-88
2023/08/28 11:46:24;;;;;;;1.67;0.50;;;18.40;99.90;;;;;;6096709;23;20171;-89
2023/08/28 11:48:52;;;;;;;0.60;0.50;;;18.40;99.90;;;;;;6071674;23;20253;-87
2023/08/28 11:51:26;;;;;;;1.17;0.55;;;18.40;99.90;;;;;;6095072;23;20164;-88
2023/08/28 11:53:57;;;;;;;0.90;0.80;;;18.30;99.90;;;;;;6096418;23;20147;-87
2023/08/28 11:56:25;;;;;;;0.50;0.50;;;18.20;99.90;;;;;;6120929;23;20151;-88
2023/08/28 11:58:54;;;;;;;1.48;0.70;;;18.20;99.90;;;;;;6120916;23;20199;-86
2023/08/28 12:01:27;;;;;;;2.28;0.45;;;18.20;99.90;;;;;;6121338;23;20164;-88
2023/08/28 12:04:00;;;;;;;0.30;0.30;;;18.20;99.90;;;;;;6095431;23;20188;-88
2023/08/28 12:06:36;;;;;;;0.52;0.40;;;18.20;99.90;;;;;;6120897;23;20580;-87
2023/08/28 12:09:04;;;;;;;0.90;0.50;;;18.20;99.90;;;;;;6121852;23;20156;-87
2023/08/28 12:11:32;;;;;;;0.47;0.47;;;18.30;99.90;;;;;;6096646;23;20254;-88
2023/08/28 12:14:17;;;;;;;1.08;0.60;;;18.20;99.90;;;;;;6098761;23;20171;-86
2023/08/28 12:16:45;;;;;;;2.00;0.60;;;18.20;99.90;;;;;;6123916;23;20151;-88
2023/08/28 12:19:19;;;;;;;0.40;0.40;;;18.20;99.90;;;;;;6098103;23;20194;-88
2023/08/28 12:21:47;;;;;;;1.20;0.50;;;18.10;99.90;;;;;;6097573;23;20173;-88
2023/08/28 12:24:16;;;;;;;1.48;0.55;;;18.10;99.90;;;;;;6123300;23;20163;-88
2023/08/28 12:26:44;;;;;;;0.50;0.47;;;18.10;99.90;;;;;;6097140;23;20167;-89
2023/08/28 12:29:12;;;;;;;0.57;0.50;;;18.20;99.90;;;;;;6123368;23;20164;-89
2023/08/28 12:31:40;;;;;;;0.40;0.40;;;18.30;99.90;;;;;;6097019;23;20178;-88
2023/08/28 12:34:11;;;;;;;2.17;0.57;;;18.30;99.90;;;;;;6123168;23;20167;-87
2023/08/28 12:36:43;;;;;;;1.35;0.52;;;18.50;99.90;;;;;;6097597;23;20638;-88
2023/08/28 12:39:19;;;;;;;0.40;0.40;;;18.70;99.90;;;;;;6097382;23;20239;-89
2023/08/28 12:41:52;;;;;;;0.57;0.47;;;19.00;99.90;;;;;;6122907;23;20175;-89
2023/08/28 12:44:21;;;;;;;2.17;0.45;;;19.30;99.90;;;;;;6123014;23;20798;-89